createdAt,value
2023-02-06T00:00:06.239Z,-1.62
2023-02-06T00:00:36.146Z,-1.62
2023-02-06T00:01:07.538Z,-1.62
2023-02-06T00:01:39.011Z,-1.62
2023-02-06T00:02:10.540Z,-1.62
2023-02-06T00:02:59.313Z,-1.62
2023-02-06T00:03:12.169Z,-1.62
2023-02-06T00:03:43.867Z,-1.62
2023-02-06T00:04:13.677Z,-1.72
2023-02-06T00:04:44.273Z,-1.72
2023-02-06T00:05:15.736Z,-1.72
2023-02-06T00:05:46.836Z,-1.72
2023-02-06T00:06:17.863Z,-1.72
2023-02-06T00:06:49.520Z,-1.72
2023-02-06T00:07:20.067Z,-1.72
2023-02-06T00:07:52.122Z,-1.72
2023-02-06T00:08:21.324Z,-1.72
2023-02-06T00:08:52.487Z,-1.72
2023-02-06T00:09:23.427Z,-1.72
2023-02-06T00:09:54.788Z,-1.72
2023-02-06T00:10:25.575Z,-1.72
2023-02-06T00:10:56.432Z,-1.72
2023-02-06T00:11:27.692Z,-1.72
2023-02-06T00:11:58.669Z,-1.62
2023-02-06T00:12:30.016Z,-1.52
2023-02-06T00:13:01.395Z,-1.52
2023-02-06T00:13:32.017Z,-1.52
2023-02-06T00:14:02.789Z,-1.52
2023-02-06T00:14:33.263Z,-1.52
2023-02-06T00:15:04.879Z,-1.42
2023-02-06T00:15:35.923Z,-1.42
2023-02-06T00:16:06.759Z,-1.42
2023-02-06T00:16:37.613Z,-1.42
2023-02-06T00:17:08.165Z,-1.42
2023-02-06T00:17:40.503Z,-1.42
2023-02-06T00:18:11.641Z,-1.42
2023-02-06T00:18:41.877Z,-1.32
2023-02-06T00:19:12.607Z,-1.32
2023-02-06T00:19:43.304Z,-1.32
2023-02-06T00:20:15.098Z,-1.32
2023-02-06T00:20:45.329Z,-1.42
2023-02-06T00:21:16.872Z,-1.42
2023-02-06T00:21:47.798Z,-1.42
2023-02-06T00:22:18.529Z,-1.42
2023-02-06T00:22:50.068Z,-1.42
2023-02-06T00:23:21.441Z,-1.42
2023-02-06T00:23:52.130Z,-1.42
2023-02-06T00:24:22.737Z,-1.42
2023-02-06T00:24:53.664Z,-1.42
2023-02-06T00:25:25.025Z,-1.32
2023-02-06T00:25:55.096Z,-1.32
2023-02-06T00:26:26.564Z,-1.32
2023-02-06T00:26:57.630Z,-1.32
2023-02-06T00:27:28.473Z,-1.32
2023-02-06T00:28:00.605Z,-1.32
2023-02-06T00:28:31.664Z,-1.32
2023-02-06T00:29:02.307Z,-1.32
2023-02-06T00:29:32.847Z,-1.32
2023-02-06T00:30:03.784Z,-1.32
2023-02-06T00:30:34.903Z,-1.32
2023-02-06T00:31:05.366Z,-1.32
2023-02-06T00:31:36.874Z,-1.32
2023-02-06T00:32:07.897Z,-1.32
2023-02-06T00:32:38.904Z,-1.32
2023-02-06T00:33:10.851Z,-1.32
2023-02-06T00:33:41.751Z,-1.32
2023-02-06T00:34:12.638Z,-1.32
2023-02-06T00:34:42.816Z,-1.32
2023-02-06T00:35:16.997Z,-1.32
2023-02-06T00:35:44.285Z,-1.32
2023-02-06T00:36:18.280Z,-1.32
2023-02-06T00:36:47.091Z,-1.32
2023-02-06T00:37:17.913Z,-1.32
2023-02-06T00:37:48.531Z,-1.32
2023-02-06T00:38:20.643Z,-1.32
2023-02-06T00:38:52.197Z,-1.32
2023-02-06T00:39:22.203Z,-1.32
2023-02-06T00:39:52.859Z,-1.32
2023-02-06T00:40:24.067Z,-1.32
2023-02-06T00:40:55.158Z,-1.32
2023-02-06T00:41:26.406Z,-1.32
2023-02-06T00:41:58.008Z,-1.32
2023-02-06T00:42:27.895Z,-1.32
2023-02-06T00:42:58.744Z,-1.32
2023-02-06T00:43:30.314Z,-1.32
2023-02-06T00:44:01.638Z,-1.32
2023-02-06T00:44:32.247Z,-1.22
2023-02-06T00:45:03.678Z,-1.22
2023-02-06T00:45:34.144Z,-1.22
2023-02-06T00:46:05.091Z,-1.22
2023-02-06T00:46:35.641Z,-1.22
2023-02-06T00:47:06.717Z,-1.22
2023-02-06T00:47:38.312Z,-1.22
2023-02-06T00:48:26.172Z,-1.22
2023-02-06T00:48:40.033Z,-1.22
2023-02-06T00:49:12.002Z,-1.12
2023-02-06T00:49:42.788Z,-1.12
2023-02-06T00:50:13.175Z,-1.12
2023-02-06T00:50:43.564Z,-1.12
2023-02-06T00:51:14.595Z,-1.12
2023-02-06T00:51:45.725Z,-1.12
2023-02-06T00:52:16.321Z,-1.12
2023-02-06T00:52:48.061Z,-1.12
2023-02-06T00:53:21.537Z,-1.12
2023-02-06T00:53:51.134Z,-1.12
2023-02-06T00:54:21.874Z,-1.12
2023-02-06T00:54:52.237Z,-1.12
2023-02-06T00:55:22.838Z,-1.12
2023-02-06T00:55:53.456Z,-1.12
2023-02-06T00:56:24.816Z,-1.12
2023-02-06T00:56:55.601Z,-1.12
2023-02-06T00:57:26.514Z,-1.12
2023-02-06T00:57:58.016Z,-1.12
2023-02-06T00:58:28.634Z,-1.12
2023-02-06T00:59:00.654Z,-1.12
2023-02-06T00:59:31.687Z,-1.12
2023-02-06T01:00:03.598Z,-1.12
2023-02-06T01:00:33.212Z,-1.12
2023-02-06T01:01:03.672Z,-1.12
2023-02-06T01:01:34.683Z,-1.12
2023-02-06T01:02:05.655Z,-1.12
2023-02-06T01:03:08.001Z,-1.12
2023-02-06T01:03:38.381Z,-1.02
2023-02-06T01:04:10.033Z,-1.02
2023-02-06T01:04:41.689Z,-1.02
2023-02-06T01:05:12.266Z,-1.02
2023-02-06T01:05:43.472Z,-1.02
2023-02-06T01:06:13.346Z,-1.02
2023-02-06T01:06:44.917Z,-1.02
2023-02-06T01:07:15.595Z,-1.02
2023-02-06T01:07:47.916Z,-1.02
2023-02-06T01:08:39.675Z,-1.02
2023-02-06T01:08:49.039Z,-1.02
2023-02-06T01:09:21.615Z,-1.02
2023-02-06T01:09:54.418Z,-1.02
2023-02-06T01:10:25.485Z,-1.02
2023-02-06T01:11:25.152Z,-1.02
2023-02-06T01:11:56.342Z,-1.02
2023-02-06T01:12:26.953Z,-1.02
2023-02-06T01:12:57.340Z,-1.02
2023-02-06T01:13:28.149Z,-1.02
2023-02-06T01:13:58.868Z,-1.02
2023-02-06T01:15:06.905Z,-1.02
2023-02-06T01:15:33.550Z,-1.02
2023-02-06T01:16:05.403Z,-1.02
2023-02-06T01:16:35.300Z,-1.02
2023-02-06T01:17:05.608Z,-1.02
2023-02-06T01:17:37.757Z,-1.02
2023-02-06T01:18:07.411Z,-1.02
2023-02-06T01:18:38.342Z,-1.02
2023-02-06T01:19:09.598Z,-1.02
2023-02-06T01:19:39.678Z,-1.02
2023-02-06T01:20:12.084Z,-1.02
2023-02-06T01:20:41.404Z,-1.02
2023-02-06T01:21:12.755Z,-1.02
2023-02-06T01:21:44.195Z,-1.02
2023-02-06T01:22:15.482Z,-1.02
2023-02-06T01:22:46.571Z,-1.02
2023-02-06T01:23:17.748Z,-1.02
2023-02-06T01:23:48.643Z,-1.02
2023-02-06T01:24:20.270Z,-1.02
2023-02-06T01:24:49.624Z,-1.12
2023-02-06T01:25:21.467Z,-1.12
2023-02-06T01:25:51.956Z,-1.12
2023-02-06T01:26:22.694Z,-1.12
2023-02-06T01:27:07.293Z,-1.12
2023-02-06T01:27:27.155Z,-1.12
2023-02-06T01:27:58.002Z,-1.02
2023-02-06T01:28:28.795Z,-1.02
2023-02-06T01:29:16.786Z,-1.02
2023-02-06T01:29:29.560Z,-1.02
2023-02-06T01:30:01.170Z,-1.02
2023-02-06T01:30:31.579Z,-1.02
2023-02-06T01:31:04.692Z,-1.02
2023-02-06T01:31:35.532Z,-1.02
2023-02-06T01:32:05.214Z,-1.02
2023-02-06T01:32:37.056Z,-1.02
2023-02-06T01:33:08.233Z,-1.02
2023-02-06T01:33:39.319Z,-1.02
2023-02-06T01:34:08.659Z,-1.02
2023-02-06T01:34:40.532Z,-1.02
2023-02-06T01:35:11.130Z,-1.02
2023-02-06T01:35:41.401Z,-1.02
2023-02-06T01:36:12.353Z,-1.02
2023-02-06T01:36:43.296Z,-1.02
2023-02-06T01:37:15.781Z,-1.02
2023-02-06T01:37:46.281Z,-1.02
2023-02-06T01:38:16.982Z,-1.02
2023-02-06T01:39:04.566Z,-1.02
2023-02-06T01:39:19.098Z,-.92
2023-02-06T01:39:49.397Z,-.92
2023-02-06T01:40:20.856Z,-.92
2023-02-06T01:40:51.208Z,-.92
2023-02-06T01:41:22.990Z,-.92
2023-02-06T01:41:53.456Z,-.92
2023-02-06T01:42:25.149Z,-.92
2023-02-06T01:42:56.346Z,-.92
2023-02-06T01:43:26.898Z,-.92
2023-02-06T01:43:58.591Z,-.92
2023-02-06T01:44:29.988Z,-.92
2023-02-06T01:44:59.390Z,-.92
2023-02-06T01:45:32.049Z,-.92
2023-02-06T01:46:01.917Z,-.92
2023-02-06T01:46:32.116Z,-.92
2023-02-06T01:47:03.247Z,-.92
2023-02-06T01:47:52.223Z,-.92
2023-02-06T01:48:05.907Z,-.92
2023-02-06T01:48:36.691Z,-.92
2023-02-06T01:49:08.049Z,-.92
2023-02-06T01:49:38.871Z,-.92
2023-02-06T01:50:09.911Z,-.92
2023-02-06T01:51:11.716Z,-.82
2023-02-06T01:52:15.206Z,-.82
2023-02-06T01:53:01.712Z,-.82
2023-02-06T01:53:15.949Z,-.82
2023-02-06T01:53:47.024Z,-.82
2023-02-06T01:54:17.749Z,-.82
2023-02-06T01:54:48.817Z,-.82
2023-02-06T01:55:19.895Z,-.82
2023-02-06T01:55:50.938Z,-.82
2023-02-06T01:56:21.196Z,-.82
2023-02-06T01:56:52.683Z,-.82
2023-02-06T01:57:23.219Z,-.82
2023-02-06T01:57:54.114Z,-.82
2023-02-06T01:58:27.597Z,-.82
2023-02-06T01:58:58.299Z,-.82
2023-02-06T01:59:28.932Z,-.82
2023-02-06T01:59:59.020Z,-.82
2023-02-06T02:00:31.388Z,-.72
2023-02-06T02:01:01.957Z,-.72
2023-02-06T02:01:33.080Z,-.72
2023-02-06T02:02:01.929Z,-.72
2023-02-06T02:02:34.243Z,-.72
2023-02-06T02:03:31.277Z,-.72
2023-02-06T02:04:02.179Z,-.72
2023-02-06T02:04:34.203Z,-.72
2023-02-06T02:05:06.503Z,-.72
2023-02-06T02:06:18.920Z,-.72
2023-02-06T02:06:40.114Z,-.72
2023-02-06T02:07:08.159Z,-.72
2023-02-06T02:07:39.103Z,-.72
2023-02-06T02:08:59.044Z,-.72
2023-02-06T02:09:30.764Z,-.72
2023-02-06T02:09:59.371Z,-.72
2023-02-06T02:10:32.133Z,-.72
2023-02-06T02:11:03.871Z,-.62
2023-02-06T02:11:34.072Z,-.62
2023-02-06T02:12:04.312Z,-.62
2023-02-06T02:12:35.900Z,-.62
2023-02-06T02:13:05.874Z,-.62
2023-02-06T02:13:36.629Z,-.62
2023-02-06T02:14:07.502Z,-.62
2023-02-06T02:14:56.567Z,-.62
2023-02-06T02:15:11.608Z,-.62
2023-02-06T02:15:41.381Z,-.62
2023-02-06T02:16:13.843Z,-.52
2023-02-06T02:16:43.547Z,-.52
2023-02-06T02:17:13.442Z,-.52
2023-02-06T02:17:45.267Z,-.52
2023-02-06T02:18:16.003Z,-.52
2023-02-06T02:18:46.541Z,-.52
2023-02-06T02:19:17.694Z,-.52
2023-02-06T02:19:48.546Z,-.52
2023-02-06T02:20:19.480Z,-.52
2023-02-06T02:20:59.037Z,-.52
2023-02-06T02:21:22.817Z,-.52
2023-02-06T02:21:53.441Z,-.52
2023-02-06T02:22:24.442Z,-.42
2023-02-06T02:22:54.786Z,-.42
2023-02-06T02:23:25.704Z,-.42
2023-02-06T02:23:56.727Z,-.42
2023-02-06T02:24:27.200Z,-.42
2023-02-06T02:24:58.568Z,-.42
2023-02-06T02:25:29.570Z,-.42
2023-02-06T02:26:00.765Z,-.42
2023-02-06T02:26:32.138Z,-.42
2023-02-06T02:27:02.971Z,-.42
2023-02-06T02:27:34.468Z,-.42
2023-02-06T02:28:05.005Z,-.42
2023-02-06T02:28:36.049Z,-.42
2023-02-06T02:29:06.773Z,-.42
2023-02-06T02:30:10.013Z,-.42
2023-02-06T02:30:42.141Z,-.42
2023-02-06T02:31:13.884Z,-.42
2023-02-06T02:31:42.985Z,-.42
2023-02-06T02:32:15.188Z,-.42
2023-02-06T02:32:45.005Z,-.42
2023-02-06T02:33:15.343Z,-.42
2023-02-06T02:33:45.957Z,-.42
2023-02-06T02:34:16.626Z,-.42
2023-02-06T02:34:47.662Z,-.42
2023-02-06T02:35:18.471Z,-.42
2023-02-06T02:35:49.074Z,-.42
2023-02-06T02:36:21.213Z,-.42
2023-02-06T02:36:52.356Z,-.42
2023-02-06T02:37:23.240Z,-.42
2023-02-06T02:37:54.639Z,-.42
2023-02-06T02:38:25.321Z,-.42
2023-02-06T02:38:55.965Z,-.42
2023-02-06T02:39:26.952Z,-.32
2023-02-06T02:39:57.378Z,-.32
2023-02-06T02:40:28.890Z,-.32
2023-02-06T02:41:00.655Z,-.32
2023-02-06T02:41:30.167Z,-.32
2023-02-06T02:42:03.078Z,-.32
2023-02-06T02:42:33.704Z,-.32
2023-02-06T02:43:04.842Z,-.32
2023-02-06T02:43:35.090Z,-.32
2023-02-06T02:44:06.156Z,-.32
2023-02-06T02:44:37.186Z,-.32
2023-02-06T02:45:08.840Z,-.32
2023-02-06T02:45:38.661Z,-.32
2023-02-06T02:46:09.425Z,-.32
2023-02-06T02:46:40.326Z,-.32
2023-02-06T02:47:43.542Z,-.32
2023-02-06T02:48:14.293Z,-.32
2023-02-06T02:48:46.259Z,-.32
2023-02-06T02:49:16.112Z,-.32
2023-02-06T02:49:47.563Z,-.32
2023-02-06T02:50:17.986Z,-.32
2023-02-06T02:51:06.192Z,-.32
2023-02-06T02:51:19.822Z,-.32
2023-02-06T02:51:50.094Z,-.32
2023-02-06T02:52:22.225Z,-.32
2023-02-06T02:52:54.124Z,-.32
2023-02-06T02:53:23.674Z,-.32
2023-02-06T02:53:55.358Z,-.32
2023-02-06T02:54:26.936Z,-.32
2023-02-06T02:54:57.250Z,-.32
2023-02-06T02:55:29.278Z,-.32
2023-02-06T02:55:58.432Z,-.32
2023-02-06T02:56:29.411Z,-.32
2023-02-06T02:57:01.727Z,-.32
2023-02-06T02:57:32.070Z,-.32
2023-02-06T02:58:03.372Z,-.32
2023-02-06T02:58:34.462Z,-.32
2023-02-06T02:59:05.189Z,-.42
2023-02-06T02:59:36.545Z,-.42
2023-02-06T03:00:07.224Z,-.32
2023-02-06T03:01:09.416Z,-.32
2023-02-06T03:01:39.603Z,-.32
2023-02-06T03:02:12.011Z,-.32
2023-02-06T03:02:41.282Z,-.32
2023-02-06T03:03:12.515Z,-.32
2023-02-06T03:03:43.915Z,-.32
2023-02-06T03:04:22.147Z,-.32
2023-02-06T03:04:46.630Z,-.32
2023-02-06T03:05:22.553Z,-.42
2023-02-06T03:05:48.114Z,-.42
2023-02-06T03:06:26.580Z,-.42
2023-02-06T03:06:49.959Z,-.42
2023-02-06T03:07:23.951Z,-.42
2023-02-06T03:07:53.087Z,-.42
2023-02-06T03:09:01.156Z,-.42
2023-02-06T03:09:25.248Z,-.42
2023-02-06T03:09:57.206Z,-.42
2023-02-06T03:10:27.737Z,-.42
2023-02-06T03:10:58.712Z,-.42
2023-02-06T03:11:29.653Z,-.42
2023-02-06T03:12:00.000Z,-.42
2023-02-06T03:12:34.101Z,-.42
2023-02-06T03:13:01.604Z,-.42
2023-02-06T03:13:42.431Z,-.42
2023-02-06T03:14:06.178Z,-.42
2023-02-06T03:14:35.186Z,-.42
2023-02-06T03:15:07.997Z,-.42
2023-02-06T03:15:39.025Z,-.42
2023-02-06T03:16:08.539Z,-.42
2023-02-06T03:16:40.310Z,-.42
2023-02-06T03:17:10.134Z,-.42
2023-02-06T03:17:40.397Z,-.42
2023-02-06T03:18:11.950Z,-.42
2023-02-06T03:18:42.214Z,-.42
2023-02-06T03:19:13.396Z,-.42
2023-02-06T03:19:46.720Z,-.42
2023-02-06T03:20:15.914Z,-.42
2023-02-06T03:21:19.637Z,-.42
2023-02-06T03:21:49.054Z,-.42
2023-02-06T03:22:21.991Z,-.42
2023-02-06T03:22:51.672Z,-.42
2023-02-06T03:23:22.914Z,-.42
2023-02-06T03:23:51.975Z,-.42
2023-02-06T03:24:40.845Z,-.42
2023-02-06T03:24:55.430Z,-.42
2023-02-06T03:25:26.349Z,-.42
2023-02-06T03:25:58.010Z,-.42
2023-02-06T03:26:28.425Z,-.42
2023-02-06T03:26:59.399Z,-.42
2023-02-06T03:27:30.074Z,-.42
2023-02-06T03:28:00.986Z,-.42
2023-02-06T03:28:31.441Z,-.42
2023-02-06T03:29:02.164Z,-.42
2023-02-06T03:29:33.030Z,-.42
2023-02-06T03:30:05.649Z,-.42
2023-02-06T03:30:35.421Z,-.42
2023-02-06T03:31:07.442Z,-.42
2023-02-06T03:31:38.586Z,-.42
2023-02-06T03:32:09.779Z,-.42
2023-02-06T03:32:41.573Z,-.42
2023-02-06T03:33:14.072Z,-.42
2023-02-06T03:33:42.029Z,-.42
2023-02-06T03:34:12.446Z,-.42
2023-02-06T03:34:44.291Z,-.42
2023-02-06T03:35:15.448Z,-.42
2023-02-06T03:35:46.719Z,-.42
2023-02-06T03:36:17.802Z,-.42
2023-02-06T03:36:48.444Z,-.42
2023-02-06T03:37:19.408Z,-.42
2023-02-06T03:37:51.169Z,-.42
2023-02-06T03:38:21.478Z,-.42
2023-02-06T03:38:52.163Z,-.42
2023-02-06T03:39:23.100Z,-.42
2023-02-06T03:39:53.623Z,-.42
2023-02-06T03:40:25.249Z,-.32
2023-02-06T03:40:55.956Z,-.32
2023-02-06T03:41:26.928Z,-.32
2023-02-06T03:41:58.295Z,-.32
2023-02-06T03:42:29.158Z,-.32
2023-02-06T03:42:59.780Z,-.32
2023-02-06T03:43:31.260Z,-.32
2023-02-06T03:44:02.465Z,-.32
2023-02-06T03:44:32.252Z,-.32
2023-02-06T03:45:06.251Z,-.32
2023-02-06T03:45:34.871Z,-.32
2023-02-06T03:46:06.337Z,-.32
2023-02-06T03:46:37.423Z,-.32
2023-02-06T03:47:10.788Z,-.32
2023-02-06T03:47:39.818Z,-.32
2023-02-06T03:48:12.620Z,-.32
2023-02-06T03:48:42.969Z,-.32
2023-02-06T03:49:12.942Z,-.32
2023-02-06T03:49:42.858Z,-.32
2023-02-06T03:50:14.191Z,-.32
2023-02-06T03:50:46.612Z,-.32
2023-02-06T03:51:17.043Z,-.32
2023-02-06T03:51:49.564Z,-.32
2023-02-06T03:52:20.098Z,-.32
2023-02-06T03:52:51.472Z,-.32
2023-02-06T03:53:22.078Z,-.32
2023-02-06T03:53:52.609Z,-.32
2023-02-06T03:54:24.026Z,-.32
2023-02-06T03:54:53.754Z,-.32
2023-02-06T03:55:34.481Z,-.22
2023-02-06T03:55:55.714Z,-.22
2023-02-06T03:56:27.801Z,-.22
2023-02-06T03:56:58.564Z,-.22
2023-02-06T03:57:36.544Z,-.22
2023-02-06T03:57:59.754Z,-.22
2023-02-06T03:58:29.836Z,-.22
2023-02-06T03:59:04.962Z,-.22
2023-02-06T03:59:34.859Z,-.22
2023-02-06T04:00:03.991Z,-.22
2023-02-06T04:00:35.428Z,-.22
2023-02-06T04:01:05.262Z,-.22
2023-02-06T04:01:36.245Z,-.22
2023-02-06T04:02:07.237Z,-.22
2023-02-06T04:02:37.643Z,-.22
2023-02-06T04:03:40.930Z,-.22
2023-02-06T04:04:11.665Z,-.22
2023-02-06T04:04:43.020Z,-.22
2023-02-06T04:05:14.961Z,-.22
2023-02-06T04:05:44.186Z,-.22
2023-02-06T04:06:14.721Z,-.22
2023-02-06T04:06:47.464Z,-.22
2023-02-06T04:07:18.142Z,-.22
2023-02-06T04:07:49.672Z,-.22
2023-02-06T04:08:20.765Z,-.22
2023-02-06T04:09:22.308Z,-.22
2023-02-06T04:09:53.415Z,-.22
2023-02-06T04:10:26.414Z,-.22
2023-02-06T04:10:54.804Z,-.22
2023-02-06T04:11:25.002Z,-.22
2023-02-06T04:11:56.143Z,-.22
2023-02-06T04:12:27.165Z,-.22
2023-02-06T04:13:00.643Z,-.22
2023-02-06T04:13:29.790Z,-.22
2023-02-06T04:14:00.621Z,-.22
2023-02-06T04:15:05.386Z,-.22
2023-02-06T04:15:35.717Z,-.22
2023-02-06T04:16:23.055Z,-.22
2023-02-06T04:16:36.854Z,-.22
2023-02-06T04:17:06.100Z,-.22
2023-02-06T04:18:08.632Z,-.22
2023-02-06T04:18:40.690Z,-.22
2023-02-06T04:19:10.653Z,-.22
2023-02-06T04:19:42.222Z,-.22
2023-02-06T04:20:14.062Z,-.22
2023-02-06T04:20:44.088Z,-.22
2023-02-06T04:21:14.569Z,-.22
2023-02-06T04:21:45.530Z,-.22
2023-02-06T04:22:16.403Z,-.22
2023-02-06T04:22:47.565Z,-.22
2023-02-06T04:23:20.859Z,-.22
2023-02-06T04:23:51.609Z,-.22
2023-02-06T04:24:21.642Z,-.22
2023-02-06T04:24:51.944Z,-.22
2023-02-06T04:25:22.755Z,-.22
2023-02-06T04:25:54.205Z,-.22
2023-02-06T04:26:27.600Z,-.22
2023-02-06T04:26:57.894Z,-.12
2023-02-06T04:27:28.459Z,-.12
2023-02-06T04:27:58.219Z,-.12
2023-02-06T04:28:29.258Z,-.12
2023-02-06T04:29:02.853Z,-.12
2023-02-06T04:29:32.663Z,-.12
2023-02-06T04:30:03.718Z,-.12
2023-02-06T04:30:34.743Z,-.12
2023-02-06T04:31:11.297Z,-.12
2023-02-06T04:31:36.421Z,-.12
2023-02-06T04:32:09.523Z,-.12
2023-02-06T04:32:37.450Z,-.12
2023-02-06T04:33:10.031Z,-.12
2023-02-06T04:33:41.213Z,-.12
2023-02-06T04:34:09.787Z,-.12
2023-02-06T04:34:40.260Z,-.12
2023-02-06T04:35:13.394Z,-.12
2023-02-06T04:35:41.907Z,-.12
2023-02-06T04:36:12.233Z,-.12
2023-02-06T04:36:45.292Z,-.12
2023-02-06T04:37:17.478Z,-.12
2023-02-06T04:37:47.547Z,-.12
2023-02-06T04:38:17.306Z,-.12
2023-02-06T04:38:49.936Z,-.12
2023-02-06T04:39:20.161Z,-.12
2023-02-06T04:39:49.862Z,-.12
2023-02-06T04:40:22.713Z,-.12
2023-02-06T04:40:53.157Z,-.12
2023-02-06T04:41:23.328Z,-.12
2023-02-06T04:41:55.776Z,-.12
2023-02-06T04:42:28.305Z,-.12
2023-02-06T04:43:31.117Z,-.12
2023-02-06T04:44:01.258Z,-.12
2023-02-06T04:44:32.918Z,-.12
2023-02-06T04:45:04.796Z,-.12
2023-02-06T04:45:31.043Z,-.12
2023-02-06T04:46:02.451Z,-.12
2023-02-06T04:46:33.046Z,-.12
2023-02-06T04:47:04.943Z,-.12
2023-02-06T04:47:36.352Z,-.12
2023-02-06T04:48:06.235Z,-.12
2023-02-06T04:48:37.948Z,-.12
2023-02-06T04:49:10.542Z,-.12
2023-02-06T04:49:39.681Z,-.12
2023-02-06T04:50:12.685Z,-.12
2023-02-06T04:50:42.520Z,-.12
2023-02-06T04:51:13.606Z,-.12
2023-02-06T04:51:42.503Z,-.12
2023-02-06T04:52:13.894Z,-.12
2023-02-06T04:52:45.118Z,-.12
2023-02-06T04:53:48.537Z,-.12
2023-02-06T04:54:18.995Z,-.12
2023-02-06T04:54:50.029Z,-.12
2023-02-06T04:55:20.293Z,-.12
2023-02-06T04:55:51.790Z,-.12
2023-02-06T04:56:22.745Z,-.12
2023-02-06T04:56:53.205Z,-.12
2023-02-06T04:57:23.390Z,-.12
2023-02-06T04:57:54.718Z,-.12
2023-02-06T04:58:26.612Z,-.12
2023-02-06T04:58:58.683Z,-.12
2023-02-06T04:59:28.907Z,-.12
2023-02-06T05:00:01.246Z,-.12
2023-02-06T05:00:30.928Z,-.12
2023-02-06T05:01:01.712Z,-.12
2023-02-06T05:01:32.622Z,-.12
2023-02-06T05:02:03.607Z,-.12
2023-02-06T05:02:34.512Z,-.12
2023-02-06T05:03:05.787Z,-.12
2023-02-06T05:03:37.655Z,-.12
2023-02-06T05:04:08.675Z,-.12
2023-02-06T05:04:41.182Z,-.12
2023-02-06T05:05:12.370Z,-.12
2023-02-06T05:05:42.140Z,-.12
2023-02-06T05:06:13.430Z,-.12
2023-02-06T05:06:44.597Z,-.12
2023-02-06T05:07:13.087Z,-.12
2023-02-06T05:07:43.887Z,-.12
2023-02-06T05:08:14.624Z,-.12
2023-02-06T05:08:47.455Z,-.12
2023-02-06T05:09:18.517Z,-.12
2023-02-06T05:09:47.592Z,-.12
2023-02-06T05:10:20.582Z,-.12
2023-02-06T05:10:51.175Z,-.12
2023-02-06T05:11:21.959Z,-.12
2023-02-06T05:11:53.389Z,-.12
2023-02-06T05:12:23.765Z,-.12
2023-02-06T05:12:54.413Z,-.02
2023-02-06T05:13:26.397Z,-.02
2023-02-06T05:13:57.092Z,-.02
2023-02-06T05:14:30.268Z,-.02
2023-02-06T05:14:57.537Z,-.02
2023-02-06T05:15:31.705Z,-.02
2023-02-06T05:16:02.453Z,-.02
2023-02-06T05:16:35.246Z,-.02
2023-02-06T05:17:03.053Z,-.02
2023-02-06T05:17:33.378Z,-.02
2023-02-06T05:18:05.134Z,-.02
2023-02-06T05:18:37.078Z,-.02
2023-02-06T05:19:26.403Z,-.02
2023-02-06T05:19:42.519Z,-.02
2023-02-06T05:20:10.675Z,-.02
2023-02-06T05:20:42.181Z,-.02
2023-02-06T05:21:11.602Z,-.02
2023-02-06T05:21:42.871Z,-.02
2023-02-06T05:22:15.034Z,-.02
2023-02-06T05:22:42.433Z,-.02
2023-02-06T05:23:17.764Z,-.02
2023-02-06T05:23:47.035Z,-.02
2023-02-06T05:24:18.754Z,-.02
2023-02-06T05:24:52.651Z,-.02
2023-02-06T05:25:21.550Z,-.02
2023-02-06T05:25:50.983Z,-.02
2023-02-06T05:26:23.955Z,-.02
2023-02-06T05:26:54.560Z,-.02
2023-02-06T05:27:22.943Z,-.02
2023-02-06T05:27:53.634Z,-.02
2023-02-06T05:28:45.065Z,.07
2023-02-06T05:28:58.148Z,.07
2023-02-06T05:29:27.740Z,.07
2023-02-06T05:29:57.992Z,.07
2023-02-06T05:30:31.501Z,.07
2023-02-06T05:31:00.972Z,.07
2023-02-06T05:32:05.382Z,.07
2023-02-06T05:32:33.154Z,.07
2023-02-06T05:33:05.244Z,.07
2023-02-06T05:33:35.502Z,.07
2023-02-06T05:34:06.023Z,.07
2023-02-06T05:34:36.678Z,.07
2023-02-06T05:35:07.606Z,.07
2023-02-06T05:35:38.244Z,.07
2023-02-06T05:36:11.208Z,.07
2023-02-06T05:36:44.452Z,.07
2023-02-06T05:37:13.304Z,.07
2023-02-06T05:37:42.732Z,.07
2023-02-06T05:38:15.900Z,.07
2023-02-06T05:39:15.753Z,.07
2023-02-06T05:39:48.588Z,.07
2023-02-06T05:40:19.888Z,.07
2023-02-06T05:40:49.984Z,.07
2023-02-06T05:41:19.700Z,.07
2023-02-06T05:41:54.556Z,.07
2023-02-06T05:42:21.694Z,.07
2023-02-06T05:42:53.883Z,.07
2023-02-06T05:43:23.294Z,.07
2023-02-06T05:43:55.346Z,.07
2023-02-06T05:44:27.413Z,.07
2023-02-06T05:44:58.737Z,.07
2023-02-06T05:45:46.444Z,.07
2023-02-06T05:45:59.452Z,.07
2023-02-06T05:46:32.381Z,.07
2023-02-06T05:47:01.652Z,.07
2023-02-06T05:47:34.910Z,.07
2023-02-06T05:48:04.567Z,.07
2023-02-06T05:48:33.630Z,.07
2023-02-06T05:49:40.283Z,.07
2023-02-06T05:50:09.356Z,.07
2023-02-06T05:50:38.284Z,.07
2023-02-06T05:51:09.282Z,.07
2023-02-06T05:51:41.583Z,.07
2023-02-06T05:52:12.542Z,.07
2023-02-06T05:53:12.095Z,.07
2023-02-06T05:53:43.208Z,.07
2023-02-06T05:54:13.992Z,.07
2023-02-06T05:55:20.344Z,.07
2023-02-06T05:55:34.035Z,.07
2023-02-06T05:55:47.491Z,.07
2023-02-06T05:56:19.699Z,.07
2023-02-06T05:56:50.326Z,.07
2023-02-06T05:57:22.945Z,.07
2023-02-06T05:57:55.436Z,.07
2023-02-06T05:58:24.542Z,.07
2023-02-06T05:58:54.522Z,.07
2023-02-06T05:59:27.626Z,.07
2023-02-06T05:59:58.179Z,.07
2023-02-06T06:01:01.088Z,.07
2023-02-06T06:01:29.936Z,.07
2023-02-06T06:02:00.734Z,.07
2023-02-06T06:02:30.720Z,.07
2023-02-06T06:03:02.964Z,.07
2023-02-06T06:03:33.492Z,.07
2023-02-06T06:04:22.432Z,.07
2023-02-06T06:04:35.488Z,.07
2023-02-06T06:05:06.099Z,.07
2023-02-06T06:05:37.151Z,.07
2023-02-06T06:06:08.249Z,.07
2023-02-06T06:06:38.503Z,.07
2023-02-06T06:07:09.199Z,.07
2023-02-06T06:07:39.957Z,.07
2023-02-06T06:08:11.431Z,.07
2023-02-06T06:08:42.107Z,.07
2023-02-06T06:09:13.526Z,.07
2023-02-06T06:09:43.989Z,.07
2023-02-06T06:10:16.604Z,.07
2023-02-06T06:11:07.757Z,.07
2023-02-06T06:11:19.020Z,.07
2023-02-06T06:11:48.969Z,.07
2023-02-06T06:12:19.370Z,.07
2023-02-06T06:12:50.787Z,.07
2023-02-06T06:13:21.219Z,.07
2023-02-06T06:13:52.009Z,.07
2023-02-06T06:14:23.647Z,.07
2023-02-06T06:14:54.382Z,.07
2023-02-06T06:15:27.435Z,.07
2023-02-06T06:16:28.367Z,.07
2023-02-06T06:16:58.647Z,.07
2023-02-06T06:17:29.774Z,.07
2023-02-06T06:18:00.335Z,.07
2023-02-06T06:18:31.182Z,.07
2023-02-06T06:19:02.685Z,.07
2023-02-06T06:20:26.145Z,.07
2023-02-06T06:20:36.369Z,.07
2023-02-06T06:21:09.022Z,.07
2023-02-06T06:21:48.437Z,.07
2023-02-06T06:22:08.375Z,.07
2023-02-06T06:22:49.339Z,.07
2023-02-06T06:23:10.555Z,.07
2023-02-06T06:23:41.166Z,.07
2023-02-06T06:24:12.566Z,.07
2023-02-06T06:24:42.833Z,.07
2023-02-06T06:25:14.588Z,.07
2023-02-06T06:25:46.124Z,.07
2023-02-06T06:26:16.852Z,.07
2023-02-06T06:26:48.195Z,.07
2023-02-06T06:27:24.759Z,.07
2023-02-06T06:27:50.054Z,.07
2023-02-06T06:28:21.208Z,.07
2023-02-06T06:28:51.734Z,.07
2023-02-06T06:29:23.121Z,.07
2023-02-06T06:29:53.790Z,.07
2023-02-06T06:30:27.470Z,.07
2023-02-06T06:31:15.124Z,.07
2023-02-06T06:31:29.243Z,.07
2023-02-06T06:31:59.010Z,.07
2023-02-06T06:32:30.080Z,.07
2023-02-06T06:33:00.117Z,.07
2023-02-06T06:33:30.613Z,.07
2023-02-06T06:34:01.236Z,.07
2023-02-06T06:34:32.211Z,.07
2023-02-06T06:35:03.208Z,.07
2023-02-06T06:35:35.121Z,.07
2023-02-06T06:36:06.309Z,.07
2023-02-06T06:36:38.576Z,.07
2023-02-06T06:37:08.741Z,.07
2023-02-06T06:37:39.399Z,.07
2023-02-06T06:38:09.980Z,.07
2023-02-06T06:38:42.028Z,.07
2023-02-06T06:39:11.746Z,.07
2023-02-06T06:39:42.214Z,.07
2023-02-06T06:40:13.925Z,.07
2023-02-06T06:40:46.493Z,.07
2023-02-06T06:41:15.441Z,.07
2023-02-06T06:41:48.157Z,.07
2023-02-06T06:42:18.452Z,.07
2023-02-06T06:42:50.347Z,.07
2023-02-06T06:43:22.334Z,.07
2023-02-06T06:43:56.237Z,.07
2023-02-06T06:44:24.147Z,.07
2023-02-06T06:44:54.647Z,.07
2023-02-06T06:45:43.663Z,.07
2023-02-06T06:45:56.924Z,.07
2023-02-06T06:46:27.685Z,.07
2023-02-06T06:46:58.786Z,.07
2023-02-06T06:47:31.808Z,.07
2023-02-06T06:48:01.835Z,.07
2023-02-06T06:48:32.947Z,.07
2023-02-06T06:49:04.029Z,.07
2023-02-06T06:49:35.369Z,.07
2023-02-06T06:50:08.572Z,.07
2023-02-06T06:50:35.897Z,.07
2023-02-06T06:51:06.621Z,.07
2023-02-06T06:51:37.930Z,.07
2023-02-06T06:52:19.609Z,.07
2023-02-06T06:52:38.048Z,.07
2023-02-06T06:53:09.062Z,.07
2023-02-06T06:53:40.453Z,.07
2023-02-06T06:54:13.430Z,.07
2023-02-06T06:54:41.905Z,.07
2023-02-06T06:55:14.378Z,.07
2023-02-06T06:55:45.310Z,.07
2023-02-06T06:56:16.721Z,.07
2023-02-06T06:56:46.964Z,.07
2023-02-06T06:57:18.998Z,.07
2023-02-06T06:57:48.697Z,.07
2023-02-06T06:58:19.259Z,.07
2023-02-06T06:58:50.548Z,.07
2023-02-06T06:59:21.091Z,.07
2023-02-06T06:59:52.837Z,.07
2023-02-06T07:00:28.943Z,.07
2023-02-06T07:00:57.375Z,.07
2023-02-06T07:01:27.916Z,-.02
2023-02-06T07:01:58.281Z,-.02
2023-02-06T07:02:30.118Z,-.02
2023-02-06T07:03:00.165Z,-.02
2023-02-06T07:03:31.285Z,-.02
2023-02-06T07:04:01.571Z,.07
2023-02-06T07:04:32.645Z,.07
2023-02-06T07:05:03.599Z,.07
2023-02-06T07:05:35.989Z,.07
2023-02-06T07:06:05.568Z,.07